Time;durP1;ratioP1;P1;durP2;ratioP2;P2;SDS_P1;SDS_P2;PMS_P1;PMS_P2;Temp;Humidity;BMP_temperature;BMP_pressure;BME280_temperature;BME280_humidity;BME280_pressure;Samples;Min_cycle;Max_cycle;Signal;HPM_P1;HPM_P2
2021/12/03 00:01:39;;;;;;;5.03;4.07;;;;;;;;;;4955097;28;20176;-78
2021/12/03 00:04:04;;;;;;;3.40;2.93;;;;;;;;;;4947809;29;20209;-78
2021/12/03 00:06:34;;;;;;;4.37;3.50;;;;;;;;;;4954375;28;20185;-78
2021/12/03 00:08:59;;;;;;;4.90;4.00;;;;;;;;;;4947524;28;20187;-78
2021/12/03 00:11:25;;;;;;;4.97;4.33;;;;;;;;;;4952780;28;20181;-78
2021/12/03 00:13:50;;;;;;;6.73;4.07;;;;;;;;;;4949832;28;20229;-78
2021/12/03 00:16:16;;;;;;;3.43;3.00;;;;;;;;;;4952136;28;20241;-78
2021/12/03 00:18:41;;;;;;;8.40;4.20;;;;;;;;;;4952382;29;20193;-78
2021/12/03 00:21:08;;;;;;;6.07;3.70;;;;;;;;;;4955481;28;20216;-78
2021/12/03 00:23:34;;;;;;;5.23;4.40;;;;;;;;;;4956642;28;20200;-78
2021/12/03 00:26:00;;;;;;;6.13;4.37;;;;;;;;;;4952286;28;20291;-78
2021/12/03 00:28:26;;;;;;;4.67;3.23;;;;;;;;;;4951885;28;20200;-78
2021/12/03 00:30:54;;;;;;;3.87;3.40;;;;;;;;;;4952867;29;20185;-78
2021/12/03 00:33:19;;;;;;;5.63;4.07;;;;;;;;;;4950256;28;20177;-78
2021/12/03 00:35:45;;;;;;;5.77;4.07;;;;;;;;;;4952173;28;20213;-78
2021/12/03 00:38:10;;;;;;;9.10;4.27;;;;;;;;;;4951243;29;20177;-78
2021/12/03 00:40:37;;;;;;;7.27;4.23;;;;;;;;;;4950380;29;20276;-78
2021/12/03 00:43:03;;;;;;;4.10;3.70;;;;;;;;;;4949193;29;20264;-78
2021/12/03 00:48:32;;;;;;;5.67;3.97;;;;;;;;;;4952062;29;20481;-78
2021/12/03 00:50:57;;;;;;;7.53;3.80;;;;;;;;;;4951329;29;20173;-78
2021/12/03 00:53:22;;;;;;;5.30;4.33;;;;;;;;;;4952151;29;20216;-78
2021/12/03 00:55:48;;;;;;;4.37;3.53;;;;;;;;;;4949388;28;20197;-78
2021/12/03 00:58:13;;;;;;;5.77;4.63;;;;;;;;;;4950808;29;20181;-78
2021/12/03 01:00:38;;;;;;;4.53;3.97;;;;;;;;;;4954647;28;20185;-78
2021/12/03 01:03:04;;;;;;;6.30;4.30;;;;;;;;;;4948667;28;20243;-78
2021/12/03 01:05:30;;;;;;;5.77;4.77;;;;;;;;;;4950514;29;20274;-78
2021/12/03 01:07:55;;;;;;;5.67;4.40;;;;;;;;;;4955869;28;20184;-78
2021/12/03 01:10:20;;;;;;;5.87;4.30;;;;;;;;;;4951485;29;20319;-78
2021/12/03 01:12:46;;;;;;;5.60;4.80;;;;;;;;;;4950930;29;20296;-78
2021/12/03 01:15:13;;;;;;;7.00;4.20;;;;;;;;;;4951748;28;20261;-78
2021/12/03 01:17:38;;;;;;;5.43;4.83;;;;;;;;;;4951409;28;20188;-78
2021/12/03 01:20:06;;;;;;;5.10;4.37;;;;;;;;;;4951425;28;20181;-78
2021/12/03 01:22:31;;;;;;;4.80;4.30;;;;;;;;;;4950211;29;20209;-78
2021/12/03 01:24:57;;;;;;;6.57;4.33;;;;;;;;;;4953034;28;20191;-78
2021/12/03 01:27:22;;;;;;;4.47;3.80;;;;;;;;;;4951615;28;20177;-78
2021/12/03 01:29:47;;;;;;;5.20;4.20;;;;;;;;;;4951617;29;20186;-78
2021/12/03 01:32:13;;;;;;;6.23;4.20;;;;;;;;;;4951467;28;20232;-78
2021/12/03 01:34:38;;;;;;;5.03;4.57;;;;;;;;;;4950203;29;20173;-78
2021/12/03 01:37:03;;;;;;;5.07;4.33;;;;;;;;;;4949754;29;20196;-78
2021/12/03 01:39:28;;;;;;;4.97;4.00;;;;;;;;;;4950327;28;20204;-78
2021/12/03 01:41:54;;;;;;;6.37;4.73;;;;;;;;;;4950018;29;20286;-78
2021/12/03 01:44:19;;;;;;;6.13;4.83;;;;;;;;;;4950502;29;20214;-78
2021/12/03 01:46:44;;;;;;;8.27;4.93;;;;;;;;;;4948676;28;20200;-78
2021/12/03 01:49:11;;;;;;;6.03;4.00;;;;;;;;;;4948725;28;20179;-78
2021/12/03 01:51:36;;;;;;;6.83;4.83;;;;;;;;;;4950220;28;20182;-78
2021/12/03 01:54:02;;;;;;;7.63;5.50;;;;;;;;;;4950882;28;20185;-78
2021/12/03 01:56:27;;;;;;;6.37;5.07;;;;;;;;;;4950582;28;20182;-79
2021/12/03 01:58:52;;;;;;;7.17;5.13;;;;;;;;;;4950246;28;20213;-79
2021/12/03 02:01:24;;;;;;;5.93;4.50;;;;;;;;;;4948204;28;20209;-79
2021/12/03 02:03:52;;;;;;;7.90;5.30;;;;;;;;;;4949511;28;20218;-79
2021/12/03 02:06:18;;;;;;;7.03;4.90;;;;;;;;;;4949879;28;20186;-79
2021/12/03 02:08:44;;;;;;;5.10;4.60;;;;;;;;;;4953244;28;20186;-79
2021/12/03 02:11:10;;;;;;;5.37;4.50;;;;;;;;;;4946636;28;21600;-79
2021/12/03 02:13:35;;;;;;;6.17;4.70;;;;;;;;;;4948929;28;20220;-79
2021/12/03 02:16:04;;;;;;;7.43;5.20;;;;;;;;;;4950581;28;20261;-78
2021/12/03 02:18:29;;;;;;;8.53;5.37;;;;;;;;;;4950841;28;20181;-79
2021/12/03 02:20:59;;;;;;;5.63;4.50;;;;;;;;;;4953361;28;20204;-79
2021/12/03 02:23:24;;;;;;;5.50;4.87;;;;;;;;;;4954513;28;20235;-79
2021/12/03 02:25:50;;;;;;;8.73;5.40;;;;;;;;;;4949783;28;20216;-79
2021/12/03 02:28:16;;;;;;;5.50;4.67;;;;;;;;;;4952726;28;20203;-80
2021/12/03 02:30:42;;;;;;;6.67;5.03;;;;;;;;;;4949474;28;20180;-79
2021/12/03 02:33:07;;;;;;;7.07;5.00;;;;;;;;;;4951568;28;20190;-79
2021/12/03 02:35:33;;;;;;;6.23;5.27;;;;;;;;;;4947878;28;20190;-79
2021/12/03 02:37:58;;;;;;;5.50;4.53;;;;;;;;;;4948770;28;20239;-79
2021/12/03 02:40:25;;;;;;;6.90;5.07;;;;;;;;;;4948030;28;20191;-79
2021/12/03 02:42:51;;;;;;;4.93;4.43;;;;;;;;;;4945901;28;20521;-79
2021/12/03 02:45:16;;;;;;;8.60;5.27;;;;;;;;;;4950416;28;20233;-79
2021/12/03 02:47:42;;;;;;;6.50;5.07;;;;;;;;;;4951696;28;20170;-80
2021/12/03 02:50:08;;;;;;;9.20;5.67;;;;;;;;;;4949473;29;20197;-79
2021/12/03 02:52:33;;;;;;;5.73;5.13;;;;;;;;;;4945064;28;20231;-79
2021/12/03 02:54:59;;;;;;;7.93;5.10;;;;;;;;;;4952833;28;20185;-79
2021/12/03 02:57:24;;;;;;;6.37;5.23;;;;;;;;;;4953562;28;20186;-79
2021/12/03 02:59:49;;;;;;;6.23;4.97;;;;;;;;;;4954703;28;21252;-79
2021/12/03 03:02:14;;;;;;;5.73;4.10;;;;;;;;;;4955338;28;20209;-79
2021/12/03 03:04:40;;;;;;;6.20;5.00;;;;;;;;;;4952726;29;20252;-79
2021/12/03 03:07:05;;;;;;;5.83;4.90;;;;;;;;;;4961564;28;20240;-80
2021/12/03 03:09:31;;;;;;;6.97;4.60;;;;;;;;;;4953848;28;20325;-80
2021/12/03 03:11:57;;;;;;;8.07;5.13;;;;;;;;;;4954595;28;20177;-80
2021/12/03 03:14:23;;;;;;;5.60;4.77;;;;;;;;;;4957479;28;20172;-80
2021/12/03 03:16:48;;;;;;;6.07;4.87;;;;;;;;;;4954716;28;20189;-79
2021/12/03 03:19:15;;;;;;;6.20;5.60;;;;;;;;;;4956411;28;20182;-80
2021/12/03 03:21:41;;;;;;;5.70;4.60;;;;;;;;;;4957883;28;20187;-80
2021/12/03 03:24:07;;;;;;;5.90;4.90;;;;;;;;;;4960770;28;20211;-80
2021/12/03 03:26:34;;;;;;;6.43;4.53;;;;;;;;;;4960506;28;20177;-80
2021/12/03 03:28:59;;;;;;;5.63;4.67;;;;;;;;;;4981476;28;20187;-80
2021/12/03 03:31:24;;;;;;;5.93;4.60;;;;;;;;;;4959463;28;20191;-80
2021/12/03 03:33:50;;;;;;;5.80;4.20;;;;;;;;;;4974676;28;20756;-80
2021/12/03 03:36:16;;;;;;;6.13;4.57;;;;;;;;;;4959194;28;20185;-80
2021/12/03 03:38:41;;;;;;;5.63;5.00;;;;;;;;;;4957027;28;20177;-81
2021/12/03 03:41:06;;;;;;;6.10;4.20;;;;;;;;;;4954114;28;20211;-80
2021/12/03 03:43:32;;;;;;;5.83;5.23;;;;;;;;;;4956674;28;20204;-80
2021/12/03 03:45:57;;;;;;;4.73;3.93;;;;;;;;;;4958873;28;20196;-80
2021/12/03 03:48:24;;;;;;;6.33;4.03;;;;;;;;;;4953652;28;20175;-81
2021/12/03 03:50:51;;;;;;;5.53;4.33;;;;;;;;;;4955744;28;20241;-81
2021/12/03 03:53:17;;;;;;;6.10;4.10;;;;;;;;;;4952921;28;20208;-80
2021/12/03 03:55:42;;;;;;;6.40;4.73;;;;;;;;;;4955539;28;20214;-81
2021/12/03 03:58:08;;;;;;;6.90;4.20;;;;;;;;;;4952792;28;20178;-80
2021/12/03 04:00:36;;;;;;;5.87;4.80;;;;;;;;;;4957297;28;20208;-80
2021/12/03 04:03:01;;;;;;;5.60;4.47;;;;;;;;;;4968153;28;20299;-80
2021/12/03 04:05:27;;;;;;;6.10;4.23;;;;;;;;;;4971552;28;20550;-80
2021/12/03 04:07:52;;;;;;;5.03;3.97;;;;;;;;;;4955848;28;20173;-80
2021/12/03 04:10:17;;;;;;;6.43;4.87;;;;;;;;;;4956721;28;20205;-80
2021/12/03 04:12:43;;;;;;;5.27;4.23;;;;;;;;;;4969726;28;20235;-80
2021/12/03 04:15:09;;;;;;;6.83;4.67;;;;;;;;;;4954635;28;20189;-80
2021/12/03 04:17:35;;;;;;;8.57;4.60;;;;;;;;;;4956784;28;20212;-80
2021/12/03 04:20:00;;;;;;;6.13;4.17;;;;;;;;;;4956302;28;20185;-80
2021/12/03 04:22:26;;;;;;;5.90;4.80;;;;;;;;;;4954336;28;20201;-80
2021/12/03 04:24:52;;;;;;;6.13;4.03;;;;;;;;;;4961377;28;20184;-80
2021/12/03 04:27:18;;;;;;;4.60;4.20;;;;;;;;;;4955863;28;20255;-79
2021/12/03 04:29:43;;;;;;;5.87;3.77;;;;;;;;;;4957263;28;20177;-80
2021/12/03 04:32:08;;;;;;;7.37;4.80;;;;;;;;;;4954475;28;20243;-80
2021/12/03 04:34:34;;;;;;;8.20;4.13;;;;;;;;;;4955327;28;20265;-80
2021/12/03 04:36:59;;;;;;;6.07;4.33;;;;;;;;;;4955056;28;20223;-79
2021/12/03 04:39:24;;;;;;;5.93;4.90;;;;;;;;;;4952300;28;20185;-79
2021/12/03 04:41:50;;;;;;;6.00;4.80;;;;;;;;;;4954281;28;20201;-79
2021/12/03 04:44:15;;;;;;;8.03;5.03;;;;;;;;;;4952204;28;20206;-79
2021/12/03 04:46:40;;;;;;;5.87;4.73;;;;;;;;;;4952137;28;20189;-79
2021/12/03 04:49:06;;;;;;;8.60;4.70;;;;;;;;;;4956072;28;20188;-79
2021/12/03 04:51:31;;;;;;;5.17;3.90;;;;;;;;;;4956740;28;20177;-79
2021/12/03 04:53:56;;;;;;;6.70;4.83;;;;;;;;;;4955291;28;20231;-79
2021/12/03 04:56:22;;;;;;;6.73;4.73;;;;;;;;;;4954414;28;20184;-79
2021/12/03 04:58:48;;;;;;;6.77;5.00;;;;;;;;;;4956003;28;21402;-79
2021/12/03 05:01:13;;;;;;;3.70;3.17;;;;;;;;;;4973522;28;20240;-79
2021/12/03 05:03:38;;;;;;;6.77;4.60;;;;;;;;;;4971901;28;20262;-79
2021/12/03 05:06:08;;;;;;;5.93;4.50;;;;;;;;;;4972328;28;20213;-79
2021/12/03 05:08:34;;;;;;;6.17;4.60;;;;;;;;;;4960363;28;20248;-78
2021/12/03 05:10:59;;;;;;;6.03;5.30;;;;;;;;;;4955729;28;20173;-78
2021/12/03 05:13:25;;;;;;;5.87;4.23;;;;;;;;;;4956844;28;20234;-79
2021/12/03 05:15:51;;;;;;;8.07;4.20;;;;;;;;;;4961204;28;20181;-79
2021/12/03 05:18:17;;;;;;;5.63;4.20;;;;;;;;;;4954345;28;20184;-78
2021/12/03 05:20:43;;;;;;;6.83;5.00;;;;;;;;;;4955513;28;20181;-79
2021/12/03 05:23:08;;;;;;;5.57;4.33;;;;;;;;;;4956428;28;20200;-79
2021/12/03 05:25:34;;;;;;;5.47;4.10;;;;;;;;;;4961991;28;20181;-79
2021/12/03 05:28:00;;;;;;;7.07;2.80;;;;;;;;;;4956509;28;20237;-78
2021/12/03 05:30:25;;;;;;;6.03;4.13;;;;;;;;;;4960236;28;20173;-78
2021/12/03 05:32:50;;;;;;;5.70;3.73;;;;;;;;;;4959015;28;20189;-78
2021/12/03 05:35:16;;;;;;;6.27;4.33;;;;;;;;;;4957438;28;20181;-78
2021/12/03 05:37:41;;;;;;;5.67;3.67;;;;;;;;;;4954839;28;20181;-78
2021/12/03 05:40:07;;;;;;;5.80;4.00;;;;;;;;;;4956509;28;20238;-78
2021/12/03 05:42:32;;;;;;;13.17;11.77;;;;;;;;;;4974343;28;20201;-78
2021/12/03 05:44:58;;;;;;;9.40;5.43;;;;;;;;;;4956990;28;20201;-78
2021/12/03 05:47:24;;;;;;;10.83;7.17;;;;;;;;;;4954947;28;20232;-78
2021/12/03 05:49:49;;;;;;;14.20;8.33;;;;;;;;;;4950074;28;20181;-79
2021/12/03 05:52:14;;;;;;;8.23;4.80;;;;;;;;;;4950557;28;20187;-78
2021/12/03 05:54:39;;;;;;;9.07;4.87;;;;;;;;;;4973516;28;20181;-78
2021/12/03 05:57:05;;;;;;;6.33;4.80;;;;;;;;;;4951237;28;20184;-78
2021/12/03 05:59:30;;;;;;;6.87;4.40;;;;;;;;;;4954921;28;20169;-78
2021/12/03 06:01:55;;;;;;;7.67;4.43;;;;;;;;;;4958020;28;20177;-79
2021/12/03 06:04:20;;;;;;;6.30;4.60;;;;;;;;;;4953621;28;20217;-79
2021/12/03 06:06:46;;;;;;;5.97;3.33;;;;;;;;;;4952377;28;20188;-79
2021/12/03 06:09:11;;;;;;;7.63;4.30;;;;;;;;;;4954990;28;20178;-79
2021/12/03 06:11:37;;;;;;;7.73;5.97;;;;;;;;;;4951017;28;20177;-78
2021/12/03 06:14:02;;;;;;;6.00;3.70;;;;;;;;;;4940194;28;20240;-78
2021/12/03 06:16:27;;;;;;;5.87;3.47;;;;;;;;;;4947379;28;20186;-79
2021/12/03 06:18:53;;;;;;;8.90;5.57;;;;;;;;;;4948775;28;20189;-78
2021/12/03 06:21:18;;;;;;;5.57;3.57;;;;;;;;;;4949628;28;20178;-78
2021/12/03 06:23:43;;;;;;;4.27;3.50;;;;;;;;;;4951731;28;20201;-79
2021/12/03 06:26:09;;;;;;;7.47;5.57;;;;;;;;;;4958986;28;20190;-80
2021/12/03 06:28:35;;;;;;;9.37;6.03;;;;;;;;;;4950181;29;20196;-81
2021/12/03 06:31:01;;;;;;;5.80;3.40;;;;;;;;;;4951375;29;20189;-83
2021/12/03 06:33:26;;;;;;;5.47;3.20;;;;;;;;;;4959141;28;20185;-81
2021/12/03 06:35:52;;;;;;;7.70;4.20;;;;;;;;;;4954783;29;20185;-80
2021/12/03 06:38:18;;;;;;;6.93;5.00;;;;;;;;;;4953013;28;20180;-80
2021/12/03 06:40:43;;;;;;;6.60;4.13;;;;;;;;;;4955420;29;20185;-81
2021/12/03 06:43:09;;;;;;;6.73;5.40;;;;;;;;;;4960175;28;20208;-80
2021/12/03 06:45:34;;;;;;;4.40;3.67;;;;;;;;;;4952907;28;20204;-81
2021/12/03 06:48:00;;;;;;;4.77;3.20;;;;;;;;;;4956214;28;20177;-81
2021/12/03 06:50:25;;;;;;;4.27;3.33;;;;;;;;;;4953878;28;20180;-81
2021/12/03 06:53:14;;;;;;;18.83;11.23;;;;;;;;;;4955341;28;20236;-81
2021/12/03 06:55:46;;;;;;;11.87;7.30;;;;;;;;;;4958322;28;20201;-81
2021/12/03 06:58:11;;;;;;;8.50;4.77;;;;;;;;;;4948642;28;20241;-81
2021/12/03 07:00:36;;;;;;;7.33;3.70;;;;;;;;;;4953083;28;20182;-81
2021/12/03 07:03:02;;;;;;;6.37;4.10;;;;;;;;;;4959452;28;20220;-81
2021/12/03 07:05:27;;;;;;;7.57;4.47;;;;;;;;;;4953885;28;20178;-81
2021/12/03 07:07:52;;;;;;;5.93;4.03;;;;;;;;;;4957185;28;20178;-81
2021/12/03 07:10:18;;;;;;;4.10;3.00;;;;;;;;;;4955207;28;20183;-81
2021/12/03 07:12:43;;;;;;;5.87;5.03;;;;;;;;;;4951586;28;20311;-81
2021/12/03 07:15:08;;;;;;;6.70;4.23;;;;;;;;;;4954666;28;20193;-81
2021/12/03 07:17:33;;;;;;;5.77;3.20;;;;;;;;;;4956297;28;20269;-81
2021/12/03 07:19:59;;;;;;;3.93;2.50;;;;;;;;;;4953067;29;20185;-81
2021/12/03 07:22:25;;;;;;;5.53;3.67;;;;;;;;;;4951540;28;20216;-81
2021/12/03 07:24:50;;;;;;;3.83;3.37;;;;;;;;;;4950619;29;20182;-82
2021/12/03 07:27:16;;;;;;;2.43;2.23;;;;;;;;;;4948110;28;20186;-82
2021/12/03 07:29:46;;;;;;;3.10;2.80;;;;;;;;;;4955304;28;20212;-81
2021/12/03 07:32:12;;;;;;;4.13;2.87;;;;;;;;;;4951474;29;20186;-82
2021/12/03 07:34:37;;;;;;;6.57;3.83;;;;;;;;;;4953854;28;20248;-82
2021/12/03 07:37:03;;;;;;;5.57;3.20;;;;;;;;;;4951004;28;20237;-82
2021/12/03 07:39:28;;;;;;;2.77;2.47;;;;;;;;;;4951995;28;20174;-82
2021/12/03 07:41:54;;;;;;;6.13;2.80;;;;;;;;;;4951213;29;20217;-82
2021/12/03 07:44:19;;;;;;;7.97;4.70;;;;;;;;;;4953749;29;20223;-82
2021/12/03 07:46:44;;;;;;;9.17;3.47;;;;;;;;;;4953944;28;20209;-82
2021/12/03 07:49:09;;;;;;;4.70;4.03;;;;;;;;;;4954191;29;20213;-82
2021/12/03 07:51:34;;;;;;;6.43;4.17;;;;;;;;;;4952384;28;20183;-82
2021/12/03 07:54:00;;;;;;;4.00;2.77;;;;;;;;;;4950629;28;20172;-82
2021/12/03 07:56:25;;;;;;;4.10;2.37;;;;;;;;;;4949336;28;20580;-82
2021/12/03 07:58:50;;;;;;;3.37;2.13;;;;;;;;;;4957607;28;20187;-82
2021/12/03 08:01:15;;;;;;;4.10;2.43;;;;;;;;;;4952186;29;20182;-83
2021/12/03 08:03:40;;;;;;;3.10;1.90;;;;;;;;;;4952857;29;20204;-83
2021/12/03 08:06:09;;;;;;;3.20;2.40;;;;;;;;;;4953552;28;20205;-83
2021/12/03 08:08:37;;;;;;;5.10;2.97;;;;;;;;;;4953570;28;20173;-82
2021/12/03 08:11:03;;;;;;;3.70;1.90;;;;;;;;;;4951086;28;20184;-83
2021/12/03 08:13:28;;;;;;;2.20;2.00;;;;;;;;;;4949590;28;20229;-83
2021/12/03 08:15:53;;;;;;;2.43;2.10;;;;;;;;;;4960405;28;20182;-76
2021/12/03 08:18:20;;;;;;;4.57;2.87;;;;;;;;;;4947971;29;20178;-85
2021/12/03 08:20:45;;;;;;;3.90;3.07;;;;;;;;;;4951593;28;20177;-86
2021/12/03 08:23:12;;;;;;;2.77;2.30;;;;;;;;;;4948618;29;20308;-85
2021/12/03 08:25:37;;;;;;;3.60;2.57;;;;;;;;;;4958477;28;20237;-86
2021/12/03 08:28:05;;;;;;;3.47;3.17;;;;;;;;;;4957065;28;20268;-86
2021/12/03 08:30:31;;;;;;;5.07;2.60;;;;;;;;;;4954536;28;20198;-85
2021/12/03 08:32:56;;;;;;;2.77;1.90;;;;;;;;;;4951417;29;20276;-85
2021/12/03 08:35:22;;;;;;;3.80;2.00;;;;;;;;;;4953182;28;20178;-86
2021/12/03 08:37:49;;;;;;;2.07;1.93;;;;;;;;;;4952286;28;20186;-85
2021/12/03 08:40:14;;;;;;;5.33;3.13;;;;;;;;;;4953180;29;20189;-85
2021/12/03 08:42:40;;;;;;;4.57;2.50;;;;;;;;;;4954256;28;20201;-85
2021/12/03 08:45:05;;;;;;;4.13;2.43;;;;;;;;;;4947774;28;20180;-85
2021/12/03 08:47:31;;;;;;;4.33;2.23;;;;;;;;;;4951214;28;20452;-85
2021/12/03 08:49:57;;;;;;;2.87;2.30;;;;;;;;;;4957354;28;20174;-85
2021/12/03 08:54:53;;;;;;;2.53;1.97;;;;;;;;;;4952667;29;20185;-84
2021/12/03 08:57:20;;;;;;;5.67;2.40;;;;;;;;;;4950952;29;20229;-84
2021/12/03 08:59:46;;;;;;;4.53;2.53;;;;;;;;;;4952640;29;20181;-84
2021/12/03 09:02:11;;;;;;;3.80;2.73;;;;;;;;;;4952709;29;20197;-84
2021/12/03 09:04:36;;;;;;;3.03;2.10;;;;;;;;;;4964808;28;20197;-84
2021/12/03 09:07:02;;;;;;;3.57;2.23;;;;;;;;;;4954463;28;20184;-84
2021/12/03 09:09:27;;;;;;;3.50;2.10;;;;;;;;;;4959344;28;20201;-84
2021/12/03 09:11:53;;;;;;;4.10;3.00;;;;;;;;;;4953090;28;20182;-84
2021/12/03 09:16:52;;;;;;;2.00;1.90;;;;;;;;;;4952888;28;20263;-83
2021/12/03 09:19:24;;;;;;;3.30;2.17;;;;;;;;;;4952283;28;20185;-84
2021/12/03 09:21:49;;;;;;;4.97;2.10;;;;;;;;;;4950944;28;20341;-79
2021/12/03 09:24:17;;;;;;;2.57;2.03;;;;;;;;;;4948559;28;20273;-76
2021/12/03 09:26:43;;;;;;;4.43;2.77;;;;;;;;;;4949378;28;20189;-78
2021/12/03 09:29:13;;;;;;;4.40;2.53;;;;;;;;;;4947654;28;20183;-78
2021/12/03 09:31:42;;;;;;;3.20;2.37;;;;;;;;;;4951955;28;20180;-77
2021/12/03 09:34:09;;;;;;;2.67;2.10;;;;;;;;;;4950720;28;20205;-77
2021/12/03 09:36:37;;;;;;;3.63;2.37;;;;;;;;;;4949492;28;20185;-77
2021/12/03 09:39:03;;;;;;;2.87;2.23;;;;;;;;;;4950205;28;20214;-77
2021/12/03 09:41:28;;;;;;;2.33;2.13;;;;;;;;;;4946073;28;20205;-78
2021/12/03 09:43:54;;;;;;;2.87;2.60;;;;;;;;;;4952193;28;20212;-78
2021/12/03 09:46:21;;;;;;;2.80;2.30;;;;;;;;;;4946336;28;20174;-78
2021/12/03 09:51:32;;;;;;;3.90;2.73;;;;;;;;;;4949815;28;20181;-78
2021/12/03 09:56:24;;;;;;;2.93;2.23;;;;;;;;;;4948866;28;20254;-78
2021/12/03 10:01:41;;;;;;;3.57;2.67;;;;;;;;;;4946806;28;20288;-78
2021/12/03 10:04:28;;;;;;;5.73;2.07;;;;;;;;;;4945370;28;20619;-77
2021/12/03 10:12:39;;;;;;;5.17;2.50;;;;;;;;;;4953059;28;20232;-78
2021/12/03 10:15:11;;;;;;;3.37;2.20;;;;;;;;;;4959551;28;20421;-78
2021/12/03 10:23:00;;;;;;;5.07;2.30;;;;;;;;;;4969307;28;20181;-77
2021/12/03 10:41:23;;;;;;;4.50;1.90;;;;;;;;;;4966723;28;20211;-78
2021/12/03 10:57:45;;;;;;;2.83;1.77;;;;;;;;;;4970318;28;20184;-77
2021/12/03 11:20:44;;;;;;;2.87;1.67;;;;;;;;;;4916671;29;20198;-77
2021/12/03 11:28:22;;;;;;;2.10;1.50;;;;;;;;;;4917690;29;20187;-77
2021/12/03 11:41:59;;;;;;;2.50;1.83;;;;;;;;;;4916921;29;20242;-78
2021/12/03 11:58:33;;;;;;;2.77;2.00;;;;;;;;;;4973694;28;20176;-77
2021/12/03 12:04:17;;;;;;;2.57;1.73;;;;;;;;;;4969578;28;20205;-77
2021/12/03 12:27:11;;;;;;;3.63;1.47;;;;;;;;;;4973351;28;20259;-77
2021/12/03 12:55:21;;;;;;;1.57;1.47;;;;;;;;;;4972656;28;20181;-77
2021/12/03 13:13:33;;;;;;;1.57;1.47;;;;;;;;;;4971351;28;20266;-77
2021/12/03 13:57:08;;;;;;;6.60;5.60;;;;;;;;;;4966128;28;20227;-77
2021/12/03 13:59:54;;;;;;;2.20;1.97;;;;;;;;;;4972448;28;20979;-76
2021/12/03 14:35:26;;;;;;;2.87;1.80;;;;;;;;;;4950267;29;20289;-78
2021/12/03 14:37:38;;;;;;;1.83;1.70;;;;;;;;;;4948591;29;20204;-77
2021/12/03 14:42:55;;;;;;;2.63;1.77;;;;;;;;;;4949476;29;20204;-78
2021/12/03 14:56:08;;;;;;;1.83;1.50;;;;;;;;;;4943517;28;20256;-77
2021/12/03 14:58:47;;;;;;;2.27;1.40;;;;;;;;;;4948455;29;20186;-78
2021/12/03 15:08:52;;;;;;;4.00;2.37;;;;;;;;;;4952495;28;20186;-78
2021/12/03 15:11:51;;;;;;;4.33;1.80;;;;;;;;;;4949076;29;20184;-78
2021/12/03 15:24:39;;;;;;;1.70;1.60;;;;;;;;;;4973339;28;20217;-77
2021/12/03 15:27:22;;;;;;;2.27;1.63;;;;;;;;;;4958370;28;20183;-78
2021/12/03 16:03:28;;;;;;;12.57;6.60;;;;;;;;;;4968895;28;20292;-77
2021/12/03 16:04:26;;;;;;;2.27;1.53;;;;;;;;;;4973820;28;20314;-77
2021/12/03 16:12:23;;;;;;;3.77;2.10;;;;;;;;;;4973043;28;20180;-77
2021/12/03 16:22:44;;;;;;;2.43;1.90;;;;;;;;;;4972279;28;20183;-77
2021/12/03 16:25:20;;;;;;;3.70;2.73;;;;;;;;;;4958660;28;20206;-77
2021/12/03 16:47:00;;;;;;;2.47;2.23;;;;;;;;;;4974966;28;20272;-77
2021/12/03 16:52:14;;;;;;;2.70;2.50;;;;;;;;;;4955537;28;20256;-80
2021/12/03 16:54:45;;;;;;;3.87;2.63;;;;;;;;;;4970351;28;20181;-79
2021/12/03 16:57:12;;;;;;;3.63;2.50;;;;;;;;;;4954385;28;20181;-77
2021/12/03 16:59:41;;;;;;;4.53;3.47;;;;;;;;;;4969012;28;20894;-76
2021/12/03 17:02:10;;;;;;;3.87;3.03;;;;;;;;;;4958036;28;20196;-77
2021/12/03 17:14:58;;;;;;;10.50;6.40;;;;;;;;;;4974828;28;20300;-77
2021/12/03 17:18:17;;;;;;;3.63;2.90;;;;;;;;;;4953863;28;20366;-79
2021/12/03 17:45:05;;;;;;;5.93;2.90;;;;;;;;;;4971461;28;20243;-77
2021/12/03 17:50:14;;;;;;;3.63;2.57;;;;;;;;;;4968254;28;20176;-77
2021/12/03 17:58:00;;;;;;;2.80;2.60;;;;;;;;;;4972778;28;20282;-77
2021/12/03 18:03:07;;;;;;;2.63;2.43;;;;;;;;;;4971446;28;20197;-77
2021/12/03 18:06:06;;;;;;;3.03;2.70;;;;;;;;;;4966832;28;20271;-77
2021/12/03 18:11:31;;;;;;;4.73;2.77;;;;;;;;;;4964719;28;20188;-77
2021/12/03 18:51:17;;;;;;;2.67;2.17;;;;;;;;;;4972412;28;20177;-78
2021/12/03 18:53:54;;;;;;;2.60;2.20;;;;;;;;;;4973143;28;20263;-78
2021/12/03 18:57:06;;;;;;;3.40;2.00;;;;;;;;;;4957704;28;20189;-78
2021/12/03 18:59:09;;;;;;;2.10;1.80;;;;;;;;;;4965750;28;20305;-78
2021/12/03 19:01:34;;;;;;;2.77;2.47;;;;;;;;;;4973977;28;20284;-78
2021/12/03 19:06:46;;;;;;;2.10;1.90;;;;;;;;;;4975262;28;20184;-78
2021/12/03 19:11:40;;;;;;;1.60;1.50;;;;;;;;;;4972030;28;20292;-78
2021/12/03 19:14:09;;;;;;;2.13;1.93;;;;;;;;;;4953463;28;20292;-78
2021/12/03 19:16:35;;;;;;;2.00;1.80;;;;;;;;;;4952960;28;20240;-78
2021/12/03 19:19:01;;;;;;;2.07;1.70;;;;;;;;;;4954914;28;20288;-78
2021/12/03 19:21:27;;;;;;;2.10;1.83;;;;;;;;;;4952617;28;20248;-77
2021/12/03 19:23:57;;;;;;;2.43;2.17;;;;;;;;;;4954671;28;20280;-78
2021/12/03 19:26:23;;;;;;;2.73;1.80;;;;;;;;;;4951584;29;20193;-78
2021/12/03 19:28:49;;;;;;;3.43;3.13;;;;;;;;;;4954014;28;20173;-78
2021/12/03 19:31:15;;;;;;;3.97;3.27;;;;;;;;;;4958238;28;20240;-78
2021/12/03 19:33:40;;;;;;;1.60;1.50;;;;;;;;;;4951123;28;20217;-78
2021/12/03 19:36:06;;;;;;;16.27;6.40;;;;;;;;;;4953584;28;20412;-77
2021/12/03 19:38:32;;;;;;;3.23;2.43;;;;;;;;;;4953132;28;20187;-78
2021/12/03 19:41:01;;;;;;;3.27;2.10;;;;;;;;;;4952701;28;20232;-77
2021/12/03 19:43:39;;;;;;;2.23;1.80;;;;;;;;;;4952343;28;20196;-77
2021/12/03 19:46:06;;;;;;;5.13;2.97;;;;;;;;;;4947551;28;20284;-77
2021/12/03 19:48:41;;;;;;;2.27;2.00;;;;;;;;;;4951470;28;20194;-78
2021/12/03 19:51:16;;;;;;;2.27;1.87;;;;;;;;;;4953038;28;20173;-78
2021/12/03 19:53:55;;;;;;;1.67;1.57;;;;;;;;;;4953238;28;20215;-78
2021/12/03 19:56:24;;;;;;;1.90;1.70;;;;;;;;;;4954197;28;20180;-77
2021/12/03 19:58:50;;;;;;;1.50;1.40;;;;;;;;;;4952058;28;20281;-78
2021/12/03 20:01:15;;;;;;;2.27;1.47;;;;;;;;;;4950361;28;20273;-78
2021/12/03 20:03:40;;;;;;;1.77;1.53;;;;;;;;;;4950631;28;20201;-78
2021/12/03 20:06:06;;;;;;;1.47;1.20;;;;;;;;;;4950502;28;20174;-77
2021/12/03 20:08:32;;;;;;;1.97;1.27;;;;;;;;;;4957438;28;20212;-78
2021/12/03 20:11:01;;;;;;;1.23;1.13;;;;;;;;;;4953352;28;20784;-77
2021/12/03 20:13:27;;;;;;;0.57;0.57;;;;;;;;;;4964465;28;20331;-77
2021/12/03 20:20:46;;;;;;;0.87;0.87;;;;;;;;;;4973460;28;20189;-78
2021/12/03 20:28:27;;;;;;;1.20;1.10;;;;;;;;;;4972225;28;20471;-78
2021/12/03 20:31:00;;;;;;;1.20;1.10;;;;;;;;;;4955860;28;20183;-78
2021/12/03 20:38:40;;;;;;;1.73;1.60;;;;;;;;;;4971793;28;20192;-78
2021/12/03 20:41:10;;;;;;;1.30;1.20;;;;;;;;;;4958638;28;20213;-78
2021/12/03 20:51:13;;;;;;;3.20;1.90;;;;;;;;;;4974698;28;20188;-78
2021/12/03 20:53:48;;;;;;;2.20;1.53;;;;;;;;;;4953135;28;20189;-77
2021/12/03 21:09:55;;;;;;;2.67;2.23;;;;;;;;;;4974960;28;20306;-77
2021/12/03 21:12:24;;;;;;;1.30;1.20;;;;;;;;;;4953339;28;20224;-77
2021/12/03 21:15:17;;;;;;;1.00;0.90;;;;;;;;;;4971604;28;20185;-77
2021/12/03 21:20:29;;;;;;;3.43;1.97;;;;;;;;;;4972188;28;20201;-77
2021/12/03 21:22:59;;;;;;;2.93;1.83;;;;;;;;;;4971028;28;20203;-77
2021/12/03 21:25:28;;;;;;;2.60;1.40;;;;;;;;;;4957077;28;20180;-78
2021/12/03 21:28:06;;;;;;;2.27;1.83;;;;;;;;;;4955209;28;20185;-77
2021/12/03 21:43:16;;;;;;;1.10;0.80;;;;;;;;;;4970420;28;20204;-77
2021/12/03 21:45:42;;;;;;;1.03;0.93;;;;;;;;;;4973144;28;20172;-77
2021/12/03 21:48:08;;;;;;;0.70;0.70;;;;;;;;;;4968447;28;20204;-77
2021/12/03 21:50:33;;;;;;;0.80;0.80;;;;;;;;;;4970594;28;20184;-77
2021/12/03 21:52:58;;;;;;;1.47;1.10;;;;;;;;;;4970027;28;20171;-77
2021/12/03 21:55:24;;;;;;;1.47;1.00;;;;;;;;;;4956399;28;20195;-77
2021/12/03 21:57:50;;;;;;;1.07;0.77;;;;;;;;;;4969351;28;20172;-77
2021/12/03 22:00:15;;;;;;;0.93;0.70;;;;;;;;;;4952708;28;20179;-77
2021/12/03 22:02:41;;;;;;;0.90;0.77;;;;;;;;;;4951264;28;20233;-77
2021/12/03 22:05:06;;;;;;;1.00;0.87;;;;;;;;;;4955074;28;20219;-77
2021/12/03 22:07:31;;;;;;;0.90;0.90;;;;;;;;;;4956794;28;20259;-77
2021/12/03 22:09:57;;;;;;;0.70;0.70;;;;;;;;;;4959675;28;20194;-77
2021/12/03 22:12:22;;;;;;;0.70;0.70;;;;;;;;;;4953453;28;20335;-77
2021/12/03 22:14:47;;;;;;;1.00;0.67;;;;;;;;;;4952323;28;20203;-77
2021/12/03 22:17:12;;;;;;;1.13;1.00;;;;;;;;;;4954627;28;20180;-78
2021/12/03 22:19:38;;;;;;;0.77;0.67;;;;;;;;;;4954085;28;20189;-77
2021/12/03 22:22:06;;;;;;;0.90;0.90;;;;;;;;;;4953027;28;20260;-77
2021/12/03 22:24:31;;;;;;;0.70;0.70;;;;;;;;;;4966752;28;20275;-77
2021/12/03 22:26:57;;;;;;;0.80;0.80;;;;;;;;;;4956064;28;20180;-77
2021/12/03 22:29:22;;;;;;;0.80;0.70;;;;;;;;;;4972862;28;20173;-77
2021/12/03 22:31:47;;;;;;;1.00;0.90;;;;;;;;;;4954562;28;20280;-78
2021/12/03 22:34:13;;;;;;;0.63;0.63;;;;;;;;;;4971817;28;20200;-77
2021/12/03 22:36:38;;;;;;;0.57;0.57;;;;;;;;;;4955972;28;20212;-77
2021/12/03 22:39:04;;;;;;;0.97;0.80;;;;;;;;;;4953554;28;20247;-77
2021/12/03 22:41:29;;;;;;;0.90;0.70;;;;;;;;;;4972524;28;20524;-77
2021/12/03 22:43:54;;;;;;;0.60;0.60;;;;;;;;;;4957318;28;20208;-77
2021/12/03 22:46:31;;;;;;;1.80;0.70;;;;;;;;;;4953519;28;20225;-77
2021/12/03 22:51:57;;;;;;;1.03;0.70;;;;;;;;;;4968039;28;20186;-77
2021/12/03 22:54:22;;;;;;;0.83;0.77;;;;;;;;;;4954067;28;20181;-77